Detall de PIREP

Printer-friendly versionPDF version

[2014/05/30 06:49:00]
Flight IATA:CT2306
Pilot Number:042
Company ICAO:CAT
Aircraft Type:F100/A
PAX:49
Aircraft Registration:PFJ
Departing Airport: LIEA
Destination Airport: LIRP
Alternate Airport:LIMC
Online: VATSIM
Route:MINKA UL5 TINTO UL12 ELB UM729 NORNI
Flight Level:F240
No Slew and time accel
No pause
Crash detect
Detect pilot in Cockpit between each 30 and 45 minutes
06:49 Zero fuel Weight: 81825 Lbs, Fuel Weight: 22632 Lbs
06:49 VATSIM:LIEA 300620Z 28008G18KT 250V320 9999 SCT018 19/15 Q1016
06:49 VATSIM:LIRP 300615Z 12004KT 9999 FEW025 14/13 Q1013 NOSIG
06:50 Parking Brakes off
06:54 Take-off
06:54 Take off Weight: 104038 Lbs
06:54 Wind: 266º @ 008 Knots Heading: 020º
06:54 POS N40º 38´ 17´´ E008º 17´ 39´´
06:54 Gear Up: 169 Knots
06:54 Flaps:1 at 170 Knots
06:55 Flaps:0 at 202 Knots
07:09 Wind:230º@068 Knots Heading: 070º Ground Speed: 459 Knots Altitude 23740 ft
07:09 TOC
07:09 Fuel Weight: 20416 Lb
07:24 Wind:258º@002 Knots Heading: 338º Ground Speed: 442 Knots Altitude 23914 ft
07:26 TOD
07:26 Fuel Weight: 18635 Lb
07:36 Flaps:1 at 200 Knots
07:39 Wind:116º@004 Knots Heading: 045º Ground Speed: 186 Knots Altitude 2913 ft
07:41 Gear Down: 181 Knots
07:41 Flaps:3 at 181 Knots
07:44 TouchDown:Rate -492 ft/min Speed: 133 Knots
07:44 VATSIM:LIRP 300715Z 04003KT 9999 SCT030 16/14 Q1013 NOSIG
07:44 Land
07:44 Wind:039º@003 Knots
07:44 Heading: 036º
07:44 Flight Duration: 00:50
07:44 Landing Weight: 98938 Lbs
07:44 POS N43º 41´ 08´´ E010º 23´ 46´´
07:45 Parking brakes on
07:45 Block to Block Duration: 00:55
07:45 Final Fuel: 17103 Lbls
07:45 Spent Fuel: 5529 Lbls
07:45 Flight Length: 190 NM
07:45 TOD Land Length: 75 NM

Exportar CSV

Powered by Drupal - Modified by Danger4k